Time;durP1;ratioP1;P1;durP2;ratioP2;P2;SDS_P1;SDS_P2;PMS_P1;PMS_P2;Temp;Humidity;BMP_temperature;BMP_pressure;BME280_temperature;BME280_humidity;BME280_pressure;Samples;Min_cycle;Max_cycle;Signal;HPM_P1;HPM_P2
2022/06/26 00:00:44;;;;;;;1999.90;999.90;;;17.10;98.10;;;;;;5074057;28;20043;-84
2022/06/26 00:03:09;;;;;;;1999.90;999.90;;;17.10;97.00;;;;;;5075117;28;20093;-85
2022/06/26 00:05:35;;;;;;;1999.90;999.90;;;17.10;97.90;;;;;;5075550;28;20652;-84
2022/06/26 00:08:02;;;;;;;1999.90;999.90;;;17.10;99.90;;;;;;5084103;28;20502;-84
2022/06/26 00:10:27;;;;;;;1999.90;999.90;;;17.10;97.80;;;;;;5091189;28;20036;-84
2022/06/26 00:12:53;;;;;;;1999.90;999.90;;;17.00;97.70;;;;;;5080591;28;20398;-85
2022/06/26 00:15:19;;;;;;;1999.90;999.90;;;17.00;99.90;;;;;;5080762;28;20686;-84
2022/06/26 00:17:44;;;;;;;1999.90;999.90;;;17.10;99.90;;;;;;5084020;28;20035;-84
2022/06/26 00:20:11;;;;;;;1999.90;999.90;;;17.00;99.90;;;;;;5065819;28;20036;-84
2022/06/26 00:22:36;;;;;;;1999.90;999.90;;;16.80;99.90;;;;;;5096752;28;20039;-88
2022/06/26 00:25:03;;;;;;;1999.90;999.90;;;16.80;99.90;;;;;;5070287;28;20235;-85
2022/06/26 00:27:28;;;;;;;1999.90;999.90;;;16.80;99.90;;;;;;5077389;28;20028;-84
2022/06/26 00:29:54;;;;;;;1999.90;999.90;;;16.90;99.90;;;;;;5055692;28;20081;-84
2022/06/26 00:32:19;;;;;;;1999.90;999.90;;;17.00;99.90;;;;;;5090639;28;20436;-84
2022/06/26 00:34:45;;;;;;;1999.90;999.90;;;17.10;99.40;;;;;;5065067;28;20487;-92
2022/06/26 00:37:11;;;;;;;1999.90;999.90;;;17.00;98.80;;;;;;5073364;28;20402;-85
2022/06/26 00:39:36;;;;;;;1999.90;999.90;;;17.00;99.10;;;;;;5088959;28;20020;-84
2022/06/26 00:42:02;;;;;;;1999.90;999.90;;;17.00;99.30;;;;;;5084754;28;20442;-84
2022/06/26 00:44:29;;;;;;;1999.90;999.90;;;17.00;99.90;;;;;;5060113;28;20032;-84
2022/06/26 00:46:55;;;;;;;1999.90;999.90;;;17.00;99.90;;;;;;5061595;28;20021;-84
2022/06/26 00:49:21;;;;;;;1999.90;999.90;;;17.00;99.90;;;;;;5094202;28;20032;-85
2022/06/26 00:51:50;;;;;;;1999.90;999.90;;;17.00;99.90;;;;;;5092358;28;20115;-85
2022/06/26 00:54:16;;;;;;;1999.90;999.90;;;16.90;99.90;;;;;;5075306;28;20025;-84
2022/06/26 00:56:42;;;;;;;1999.90;999.90;;;16.80;99.90;;;;;;5085301;28;20020;-84
2022/06/26 00:59:08;;;;;;;1999.90;999.90;;;16.80;99.90;;;;;;5093207;28;21383;-82
2022/06/26 01:01:34;;;;;;;1999.90;999.90;;;16.70;99.90;;;;;;5089266;28;20055;-84
2022/06/26 01:04:03;;;;;;;1999.90;999.90;;;16.70;99.90;;;;;;5089569;28;20032;-84
2022/06/26 01:06:31;;;;;;;1999.90;999.90;;;16.60;99.90;;;;;;5089593;28;20135;-84
2022/06/26 01:08:58;;;;;;;1999.90;999.90;;;16.60;99.90;;;;;;5059674;28;20311;-84
2022/06/26 01:11:28;;;;;;;1999.90;999.90;;;16.60;99.90;;;;;;5087554;28;20031;-85
2022/06/26 01:13:57;;;;;;;1999.90;999.90;;;16.60;99.90;;;;;;5086345;28;20021;-83
2022/06/26 01:16:24;;;;;;;1999.90;999.90;;;16.50;99.90;;;;;;5081380;28;20028;-84
2022/06/26 01:18:53;;;;;;;1999.90;999.90;;;16.40;99.90;;;;;;5106388;28;20062;-84
2022/06/26 01:21:21;;;;;;;1999.90;999.90;;;16.40;99.90;;;;;;5077181;28;20490;-84
2022/06/26 01:23:47;;;;;;;1999.90;999.90;;;16.30;99.90;;;;;;5100682;28;20617;-84
2022/06/26 01:26:13;;;;;;;1999.90;999.90;;;16.30;99.90;;;;;;5076676;28;20710;-84
2022/06/26 01:28:39;;;;;;;1999.90;999.90;;;16.40;99.90;;;;;;5074570;28;20035;-84
2022/06/26 01:31:05;;;;;;;1999.90;999.90;;;16.30;99.90;;;;;;5061521;28;20024;-86
2022/06/26 01:33:31;;;;;;;1999.90;999.90;;;16.30;99.90;;;;;;5074111;28;20039;-85
2022/06/26 01:35:56;;;;;;;1999.90;999.90;;;16.10;99.90;;;;;;5068842;28;20101;-84
2022/06/26 01:38:23;;;;;;;1999.90;999.90;;;16.20;99.90;;;;;;5059471;28;20031;-84
2022/06/26 01:40:51;;;;;;;1999.90;999.90;;;16.20;99.90;;;;;;5082752;28;20024;-84
2022/06/26 01:43:27;;;;;;;1999.90;999.90;;;16.10;99.90;;;;;;5085485;28;20544;-85
2022/06/26 01:45:54;;;;;;;1999.90;999.90;;;16.10;99.90;;;;;;5096825;28;20514;-84
2022/06/26 01:48:22;;;;;;;1999.90;999.90;;;16.00;99.90;;;;;;5082519;28;20020;-84
2022/06/26 01:50:48;;;;;;;1999.90;999.90;;;16.00;99.90;;;;;;5074217;28;20087;-84
2022/06/26 01:53:15;;;;;;;1999.90;999.90;;;16.10;99.90;;;;;;5099465;28;20486;-85
2022/06/26 01:55:41;;;;;;;1999.90;999.90;;;16.00;99.90;;;;;;5056707;28;20036;-84
2022/06/26 01:58:07;;;;;;;1999.90;999.90;;;16.10;99.90;;;;;;5073522;28;20103;-84
2022/06/26 02:00:36;;;;;;;1999.90;999.90;;;16.20;99.90;;;;;;5093930;28;20040;-84
2022/06/26 02:03:02;;;;;;;1999.90;999.90;;;16.10;99.90;;;;;;5060088;28;20032;-84
2022/06/26 02:05:28;;;;;;;1999.90;999.90;;;16.20;99.90;;;;;;5088661;28;20028;-84
2022/06/26 02:07:54;;;;;;;1999.90;999.90;;;16.20;99.90;;;;;;5094096;28;20020;-85
2022/06/26 02:15:51;;;;;;;1999.90;999.90;;;16.30;99.90;;;;;;5092908;28;20116;-84
2022/06/26 02:18:17;;;;;;;1999.90;999.90;;;16.30;99.90;;;;;;5083562;28;20073;-84
2022/06/26 02:20:42;;;;;;;1999.90;999.90;;;16.30;99.90;;;;;;5071479;28;20036;-84
2022/06/26 02:23:09;;;;;;;1999.90;999.90;;;16.40;99.90;;;;;;5081659;28;20058;-83
2022/06/26 02:25:35;;;;;;;1999.90;999.90;;;16.30;99.90;;;;;;5098987;28;20024;-84
2022/06/26 02:28:00;;;;;;;1999.90;999.90;;;16.40;99.90;;;;;;5093692;28;20090;-84
2022/06/26 02:30:26;;;;;;;1999.90;999.90;;;16.30;99.90;;;;;;5096079;28;20059;-84
2022/06/26 02:32:56;;;;;;;1999.90;999.90;;;16.60;99.90;;;;;;5091362;28;20032;-86
2022/06/26 02:35:23;;;;;;;1999.90;999.90;;;16.50;99.90;;;;;;5079885;28;20028;-83
2022/06/26 02:37:48;;;;;;;1999.90;999.90;;;16.60;99.90;;;;;;5071405;28;20019;-84
2022/06/26 02:40:14;;;;;;;1999.90;999.90;;;16.70;99.90;;;;;;5087067;28;20111;-84
2022/06/26 02:42:40;;;;;;;1999.90;999.90;;;16.60;99.90;;;;;;5105955;28;20444;-84
2022/06/26 02:45:06;;;;;;;1999.90;999.90;;;16.60;99.90;;;;;;5081535;28;20112;-85
2022/06/26 02:47:32;;;;;;;1999.90;999.90;;;16.60;99.90;;;;;;5082241;28;20024;-85
2022/06/26 02:49:57;;;;;;;1999.90;999.90;;;16.70;99.90;;;;;;5096384;28;20101;-83
2022/06/26 02:52:23;;;;;;;1999.90;999.90;;;16.60;99.90;;;;;;5080491;28;20028;-84
2022/06/26 02:54:49;;;;;;;1999.90;999.90;;;16.50;99.90;;;;;;5093218;28;20031;-84
2022/06/26 02:57:14;;;;;;;1999.90;999.90;;;16.70;99.90;;;;;;5074494;28;20019;-85
2022/06/26 02:59:40;;;;;;;1999.90;999.90;;;16.60;99.90;;;;;;5075653;28;20066;-83
2022/06/26 03:02:06;;;;;;;1999.90;999.90;;;16.70;99.90;;;;;;5091901;28;20036;-84
2022/06/26 03:04:31;;;;;;;1999.90;999.90;;;16.80;99.90;;;;;;5072220;28;20434;-84
2022/06/26 03:06:57;;;;;;;1999.90;999.90;;;16.80;99.90;;;;;;5080470;28;20060;-87
2022/06/26 03:09:23;;;;;;;1999.90;999.90;;;16.80;99.90;;;;;;5073392;28;20028;-85
2022/06/26 03:11:48;;;;;;;1999.90;999.90;;;16.70;99.90;;;;;;5084203;28;20031;-84
2022/06/26 03:14:14;;;;;;;1999.90;999.90;;;16.60;99.90;;;;;;5100351;28;20028;-84
2022/06/26 03:16:39;;;;;;;1999.90;999.90;;;16.50;99.90;;;;;;5065451;28;20034;-84
2022/06/26 03:19:05;;;;;;;1999.90;999.90;;;16.60;99.90;;;;;;5096547;28;20054;-93
2022/06/26 03:21:31;;;;;;;1999.90;999.90;;;16.80;99.90;;;;;;5097804;28;20078;-85
2022/06/26 03:24:02;;;;;;;1999.90;999.90;;;16.80;99.90;;;;;;5092780;28;20555;-84
2022/06/26 03:26:33;;;;;;;1999.90;999.90;;;16.80;99.90;;;;;;5075488;28;20024;-85
2022/06/26 03:29:00;;;;;;;1999.90;999.90;;;16.90;99.90;;;;;;5069049;28;20050;-86
2022/06/26 03:31:27;;;;;;;1999.90;999.90;;;16.90;99.90;;;;;;5074054;28;20436;-85
2022/06/26 03:33:53;;;;;;;1999.90;999.90;;;16.90;99.90;;;;;;5077638;28;20307;-84
2022/06/26 03:36:18;;;;;;;1999.90;999.90;;;16.90;99.90;;;;;;5069878;28;20491;-84
2022/06/26 03:38:44;;;;;;;1999.90;999.90;;;16.90;99.90;;;;;;5076954;28;20035;-85
2022/06/26 03:41:11;;;;;;;1999.90;999.90;;;16.80;99.90;;;;;;5101602;28;20495;-85
2022/06/26 03:43:37;;;;;;;1999.90;999.90;;;16.90;99.90;;;;;;5097148;28;20045;-84
2022/06/26 03:46:03;;;;;;;1999.90;999.90;;;17.00;99.90;;;;;;5083010;28;20040;-83
2022/06/26 03:48:30;;;;;;;1999.90;999.90;;;17.00;99.90;;;;;;5091190;28;20020;-83
2022/06/26 03:50:56;;;;;;;1999.90;999.90;;;17.20;99.90;;;;;;5074587;28;20075;-84
2022/06/26 03:53:22;;;;;;;1999.90;999.90;;;17.30;99.90;;;;;;5076003;28;20429;-85
2022/06/26 03:55:47;;;;;;;1999.90;999.90;;;17.20;99.90;;;;;;5073607;28;20043;-84
2022/06/26 03:58:13;;;;;;;1999.90;999.90;;;17.20;99.90;;;;;;5092282;28;20035;-85
2022/06/26 04:00:39;;;;;;;1999.90;999.90;;;17.30;99.90;;;;;;5086363;28;20520;-84
2022/06/26 04:03:06;;;;;;;1999.90;999.90;;;17.30;99.90;;;;;;5093207;28;20055;-85
2022/06/26 04:05:33;;;;;;;1999.90;999.90;;;17.40;99.90;;;;;;5073726;28;20405;-84
2022/06/26 04:07:59;;;;;;;1999.90;999.90;;;17.50;99.90;;;;;;5090179;28;20072;-84
2022/06/26 04:10:25;;;;;;;1999.90;999.90;;;17.40;99.90;;;;;;5097927;28;20554;-83
2022/06/26 04:12:51;;;;;;;1999.90;999.90;;;17.50;99.90;;;;;;5082102;28;20034;-84
2022/06/26 04:15:17;;;;;;;1999.90;999.90;;;17.50;99.90;;;;;;5076035;28;20039;-85
2022/06/26 04:17:43;;;;;;;1999.90;999.90;;;17.50;99.90;;;;;;5074173;28;20158;-84
2022/06/26 04:20:09;;;;;;;1999.90;999.90;;;17.50;99.90;;;;;;5087043;28;20259;-84
2022/06/26 04:22:35;;;;;;;1999.90;999.90;;;17.30;99.90;;;;;;5093539;28;20024;-84
2022/06/26 04:25:01;;;;;;;1999.90;999.90;;;17.40;99.90;;;;;;5073652;28;20545;-84
2022/06/26 04:27:27;;;;;;;1999.90;999.90;;;17.40;99.90;;;;;;5075116;28;20028;-88
2022/06/26 04:29:53;;;;;;;1999.90;999.90;;;17.40;99.90;;;;;;5039139;28;20651;-84
2022/06/26 04:32:18;;;;;;;1999.90;999.90;;;17.40;99.90;;;;;;5071128;28;20519;-83
2022/06/26 04:34:44;;;;;;;1999.90;999.90;;;17.50;99.90;;;;;;5074494;28;20557;-84
2022/06/26 04:37:10;;;;;;;1999.90;999.90;;;17.60;99.90;;;;;;5092893;28;20085;-84
2022/06/26 04:39:35;;;;;;;1999.90;999.90;;;17.40;99.90;;;;;;5067105;28;20034;-86
2022/06/26 04:42:01;;;;;;;1999.90;999.90;;;17.40;99.90;;;;;;5084777;28;20256;-84
2022/06/26 04:44:27;;;;;;;1999.90;999.90;;;17.40;99.90;;;;;;5102095;28;20038;-84
2022/06/26 04:46:53;;;;;;;1999.90;999.90;;;17.40;99.90;;;;;;5065793;28;20128;-84
2022/06/26 04:49:20;;;;;;;1999.90;999.90;;;17.40;99.90;;;;;;5099094;28;20100;-86
2022/06/26 04:51:46;;;;;;;1999.90;999.90;;;17.20;99.90;;;;;;5078737;28;20035;-85
2022/06/26 04:54:11;;;;;;;1999.90;999.90;;;17.20;99.90;;;;;;5081366;28;20032;-84
2022/06/26 04:56:38;;;;;;;1999.90;999.90;;;17.30;99.90;;;;;;5073049;28;20046;-84
2022/06/26 04:59:05;;;;;;;1999.90;999.90;;;17.40;99.90;;;;;;5091902;28;20033;-84
2022/06/26 05:01:31;;;;;;;1999.90;999.90;;;17.60;99.90;;;;;;5092110;28;20535;-88
2022/06/26 05:03:57;;;;;;;1999.90;999.90;;;17.50;99.90;;;;;;5086976;28;20400;-85
2022/06/26 05:06:23;;;;;;;1999.90;999.90;;;17.70;99.90;;;;;;5082352;28;20023;-84
2022/06/26 05:08:49;;;;;;;1999.90;999.90;;;17.50;99.90;;;;;;5102408;28;20031;-84
2022/06/26 05:11:14;;;;;;;1999.90;999.90;;;17.40;99.90;;;;;;5087231;28;20023;-84
2022/06/26 05:13:40;;;;;;;1999.90;999.90;;;17.70;99.90;;;;;;5087985;28;20032;-91
2022/06/26 05:16:06;;;;;;;1999.90;999.90;;;17.80;99.90;;;;;;5062818;28;20032;-83
2022/06/26 05:18:32;;;;;;;1999.90;999.90;;;18.10;99.90;;;;;;5103590;28;20043;-85
2022/06/26 05:20:58;;;;;;;1999.90;999.90;;;18.20;99.90;;;;;;5091590;28;20031;-84
2022/06/26 05:23:24;;;;;;;1999.90;999.90;;;18.40;99.90;;;;;;5099698;28;20019;-84
2022/06/26 05:25:51;;;;;;;1999.90;999.90;;;18.40;99.90;;;;;;5078050;28;20039;-84
2022/06/26 05:28:17;;;;;;;1999.90;999.90;;;18.30;99.90;;;;;;5064455;28;20082;-84
2022/06/26 05:30:43;;;;;;;1999.90;999.90;;;18.50;99.90;;;;;;5090800;28;20032;-84
2022/06/26 05:33:08;;;;;;;1999.90;999.90;;;18.60;99.90;;;;;;5073365;28;20045;-84
2022/06/26 05:35:34;;;;;;;1999.90;999.90;;;18.70;99.00;;;;;;5077174;28;20483;-84
2022/06/26 05:38:00;;;;;;;1999.90;999.90;;;18.60;98.30;;;;;;5084006;28;20106;-85
2022/06/26 05:40:26;;;;;;;1999.90;999.90;;;18.80;97.30;;;;;;5058917;28;20496;-85
2022/06/26 05:42:56;;;;;;;1999.90;999.90;;;19.00;96.70;;;;;;5102596;28;20383;-84
2022/06/26 05:45:22;;;;;;;1999.90;999.90;;;19.20;96.10;;;;;;5097447;28;20028;-84
2022/06/26 05:47:48;;;;;;;1999.90;999.90;;;19.10;98.70;;;;;;5082884;28;20028;-85
2022/06/26 05:50:14;;;;;;;1999.90;999.90;;;18.90;99.10;;;;;;5093675;28;20030;-86
2022/06/26 05:52:39;;;;;;;1999.90;999.90;;;19.10;98.00;;;;;;5101539;28;20044;-84
2022/06/26 05:55:06;;;;;;;1999.90;999.90;;;19.30;96.50;;;;;;5081468;28;20028;-84
2022/06/26 05:57:32;;;;;;;1999.90;999.90;;;19.20;97.40;;;;;;5074672;28;20036;-84
2022/06/26 05:59:58;;;;;;;1999.90;999.90;;;19.10;99.00;;;;;;5077921;28;20114;-84
2022/06/26 06:02:24;;;;;;;1999.90;999.90;;;19.00;99.00;;;;;;5087158;28;20567;-85
2022/06/26 06:04:49;;;;;;;1999.90;999.90;;;19.20;97.50;;;;;;5089903;28;20104;-85
2022/06/26 06:07:15;;;;;;;1999.90;999.90;;;19.30;96.80;;;;;;5082595;28;20358;-84
2022/06/26 06:09:41;;;;;;;1999.90;999.90;;;19.30;95.00;;;;;;5081537;28;20450;-84
2022/06/26 06:12:07;;;;;;;1999.90;999.90;;;19.40;96.60;;;;;;5102933;28;20034;-84
2022/06/26 06:14:32;;;;;;;1999.90;999.90;;;19.40;97.50;;;;;;5099458;28;20102;-88
2022/06/26 06:17:35;;;;;;;1999.90;999.90;;;19.50;95.10;;;;;;5080861;28;20055;-84
2022/06/26 06:19:43;;;;;;;1999.90;999.90;;;19.30;95.60;;;;;;5095524;28;20544;-84
2022/06/26 06:22:09;;;;;;;1999.90;999.90;;;18.80;96.80;;;;;;5091237;28;20480;-84
2022/06/26 06:24:35;;;;;;;1999.90;999.90;;;18.70;99.90;;;;;;5076389;28;20107;-85
2022/06/26 06:27:00;;;;;;;1999.90;999.90;;;18.50;99.90;;;;;;5092715;28;20012;-84
2022/06/26 06:29:26;;;;;;;1999.90;999.90;;;18.60;99.90;;;;;;5065432;28;20047;-84
2022/06/26 06:31:51;;;;;;;1999.90;999.90;;;18.60;98.60;;;;;;5069237;28;20454;-86
2022/06/26 06:34:17;;;;;;;1999.90;999.90;;;18.90;97.90;;;;;;5090483;28;20463;-84
2022/06/26 06:36:43;;;;;;;1999.90;999.90;;;19.10;96.50;;;;;;5074093;28;20031;-85
2022/06/26 06:39:08;;;;;;;1999.90;999.90;;;19.30;96.70;;;;;;5101593;28;20936;-84
2022/06/26 06:41:34;;;;;;;1999.90;999.90;;;19.50;96.60;;;;;;5085208;28;20091;-84
2022/06/26 06:43:59;;;;;;;1999.90;999.90;;;19.70;93.60;;;;;;5081451;28;20067;-84
2022/06/26 06:46:25;;;;;;;1999.90;999.90;;;19.70;92.20;;;;;;5060766;28;20084;-84
2022/06/26 06:48:51;;;;;;;1999.90;999.90;;;19.90;92.70;;;;;;5079400;28;20055;-85
2022/06/26 06:51:16;;;;;;;1999.90;999.90;;;20.20;92.10;;;;;;5077310;28;20046;-85
2022/06/26 06:53:42;;;;;;;1529.90;757.40;;;20.20;92.20;;;;;;5038162;28;20510;-85
2022/06/26 06:56:08;;;;;;;1999.90;999.90;;;20.20;89.10;;;;;;5085510;28;20119;-84
2022/06/26 06:58:33;;;;;;;1999.90;999.90;;;20.20;84.20;;;;;;5080486;28;20060;-84
2022/06/26 07:00:59;;;;;;;1999.90;999.90;;;20.40;85.40;;;;;;5072053;28;20127;-86
2022/06/26 07:03:24;;;;;;;1999.90;999.90;;;20.30;90.70;;;;;;5053943;28;20036;-84
2022/06/26 07:05:50;;;;;;;1999.90;999.90;;;20.40;91.60;;;;;;5068822;28;20494;-84
2022/06/26 07:08:16;;;;;;;1999.90;999.90;;;20.40;86.40;;;;;;5098924;28;20066;-85
2022/06/26 07:10:42;;;;;;;1999.90;999.90;;;20.70;74.50;;;;;;5093434;28;20039;-84
2022/06/26 07:13:10;;;;;;;1999.90;999.90;;;20.80;74.60;;;;;;5080064;28;20495;-86
2022/06/26 07:15:36;;;;;;;1999.90;999.90;;;20.90;74.80;;;;;;5073626;28;20218;-85
2022/06/26 07:18:01;;;;;;;1999.90;999.90;;;21.00;73.10;;;;;;5071381;28;20077;-84
2022/06/26 07:20:27;;;;;;;1999.90;999.90;;;21.20;76.80;;;;;;5050118;28;20682;-84
2022/06/26 07:22:54;;;;;;;1999.90;999.90;;;21.20;76.90;;;;;;5079518;28;20035;-86
2022/06/26 07:25:19;;;;;;;1999.90;999.90;;;21.20;72.70;;;;;;5100094;28;20024;-84
2022/06/26 07:27:45;;;;;;;1999.90;999.90;;;21.30;75.90;;;;;;5087055;28;20643;-83
2022/06/26 07:30:12;;;;;;;1999.90;999.90;;;21.60;71.90;;;;;;5061455;28;20048;-83
2022/06/26 07:32:38;;;;;;;1999.90;999.90;;;21.50;67.70;;;;;;5070426;28;20027;-84
2022/06/26 07:35:04;;;;;;;1999.90;999.90;;;21.50;75.70;;;;;;5071582;28;20055;-83
2022/06/26 07:37:30;;;;;;;1999.90;999.90;;;21.50;72.50;;;;;;5086300;28;20091;-84
2022/06/26 07:39:56;;;;;;;1999.90;999.90;;;21.50;74.30;;;;;;5072716;28;20091;-83
2022/06/26 07:42:22;;;;;;;1999.90;999.90;;;21.50;76.60;;;;;;5074474;28;20034;-83
2022/06/26 07:44:48;;;;;;;1999.90;999.90;;;21.50;77.40;;;;;;5083796;28;20036;-83
2022/06/26 07:47:13;;;;;;;1999.90;999.90;;;21.70;74.70;;;;;;5078563;28;20036;-84
2022/06/26 07:49:39;;;;;;;1999.90;999.90;;;21.70;78.90;;;;;;5064986;28;20036;-84
2022/06/26 07:52:05;;;;;;;1999.90;999.90;;;21.80;80.30;;;;;;5066159;28;20069;-83
2022/06/26 07:54:31;;;;;;;1999.90;999.90;;;21.80;73.90;;;;;;5064167;28;20031;-83
2022/06/26 07:56:57;;;;;;;1999.90;999.90;;;22.00;70.90;;;;;;5078012;28;20036;-87
2022/06/26 07:59:22;;;;;;;1999.90;999.90;;;22.00;73.60;;;;;;5081213;28;20032;-84
2022/06/26 08:01:48;;;;;;;1999.90;999.90;;;22.30;71.40;;;;;;5063185;28;20127;-84
2022/06/26 08:04:14;;;;;;;1999.90;999.90;;;22.40;73.10;;;;;;5081726;28;20043;-83
2022/06/26 08:06:39;;;;;;;1999.90;999.90;;;22.40;68.10;;;;;;5082183;28;20035;-84
2022/06/26 08:09:06;;;;;;;1999.90;999.90;;;22.20;68.30;;;;;;5077456;28;20031;-84
2022/06/26 08:11:33;;;;;;;1999.90;999.90;;;22.20;72.30;;;;;;5070486;28;20016;-84
2022/06/26 08:13:58;;;;;;;1999.90;999.90;;;22.40;67.30;;;;;;5078735;28;20111;-83
2022/06/26 08:16:24;;;;;;;1999.90;999.90;;;22.50;68.80;;;;;;5059388;28;20467;-83
2022/06/26 08:18:50;;;;;;;1999.90;999.90;;;22.70;74.30;;;;;;5089923;28;20024;-82
2022/06/26 08:23:59;;;;;;;1999.90;999.90;;;23.00;71.00;;;;;;5091096;28;20046;-84
2022/06/26 08:26:25;;;;;;;1999.90;999.90;;;23.00;80.00;;;;;;5075991;28;20385;-85
2022/06/26 08:28:51;;;;;;;1999.90;999.90;;;23.40;70.60;;;;;;5051816;28;20102;-84
2022/06/26 08:31:16;;;;;;;1999.90;999.90;;;23.60;71.10;;;;;;5080395;28;20048;-85
2022/06/26 08:33:43;;;;;;;1999.90;999.90;;;23.60;71.90;;;;;;5088707;28;20498;-84
2022/06/26 08:36:08;;;;;;;1999.90;999.90;;;23.70;67.80;;;;;;5092944;28;20038;-84
2022/06/26 08:38:34;;;;;;;1999.90;999.90;;;23.50;65.90;;;;;;5078130;28;20028;-89
2022/06/26 08:41:00;;;;;;;1999.90;999.90;;;23.50;64.90;;;;;;5078711;28;20490;-89
2022/06/26 08:43:27;;;;;;;1999.90;999.90;;;23.50;68.50;;;;;;5081269;28;20104;-92
2022/06/26 08:45:54;;;;;;;1999.90;999.90;;;23.70;62.80;;;;;;5061051;28;20048;-90
2022/06/26 08:48:24;;;;;;;1999.90;999.90;;;24.00;62.70;;;;;;5083371;28;20028;-92
2022/06/26 08:50:50;;;;;;;1999.90;999.90;;;23.80;65.40;;;;;;5100036;28;20035;-90
2022/06/26 08:53:16;;;;;;;1999.90;999.90;;;24.00;63.40;;;;;;5100302;28;20035;-88
2022/06/26 08:55:42;;;;;;;1999.90;999.90;;;24.10;63.40;;;;;;5080210;28;20525;-88
2022/06/26 08:58:08;;;;;;;1999.90;999.90;;;24.00;63.40;;;;;;5078698;28;20036;-88
2022/06/26 09:00:34;;;;;;;1999.90;999.90;;;24.20;61.80;;;;;;5084664;28;20040;-83
2022/06/26 09:03:00;;;;;;;1999.90;999.90;;;24.40;63.30;;;;;;5072473;28;20289;-83
2022/06/26 09:05:25;;;;;;;1999.90;999.90;;;24.40;60.20;;;;;;5071822;28;20176;-84
2022/06/26 09:07:53;;;;;;;1999.90;999.90;;;24.70;64.00;;;;;;5087781;28;20104;-84
2022/06/26 09:10:26;;;;;;;1999.90;999.90;;;24.40;60.40;;;;;;5086040;28;20035;-83
2022/06/26 09:12:53;;;;;;;1999.90;999.90;;;24.50;61.10;;;;;;5092931;28;20112;-82
2022/06/26 09:15:20;;;;;;;1999.90;999.90;;;25.00;61.80;;;;;;5077466;28;20030;-86
2022/06/26 09:18:03;;;;;;;1999.90;999.90;;;25.20;56.00;;;;;;5077568;28;20097;-82
2022/06/26 09:20:34;;;;;;;1999.90;999.90;;;25.20;60.70;;;;;;5075008;28;20177;-81
2022/06/26 09:23:01;;;;;;;1999.90;999.90;;;24.90;60.30;;;;;;5099657;28;20035;-83
2022/06/26 09:25:38;;;;;;;1999.90;999.90;;;24.80;62.20;;;;;;5089655;28;20035;-85
2022/06/26 09:28:15;;;;;;;1999.90;999.90;;;25.10;65.70;;;;;;5074135;28;20029;-83
2022/06/26 09:30:54;;;;;;;1999.90;999.90;;;25.10;54.90;;;;;;5090093;28;20090;-84
2022/06/26 09:33:28;;;;;;;1999.90;999.90;;;24.70;55.90;;;;;;5076759;28;20036;-83
2022/06/26 09:35:55;;;;;;;1999.90;999.90;;;24.60;55.00;;;;;;5093091;28;20084;-83
2022/06/26 09:38:23;;;;;;;1999.90;999.90;;;24.80;57.10;;;;;;5084671;28;20020;-85
2022/06/26 09:41:08;;;;;;;1999.90;999.90;;;25.20;54.30;;;;;;5076643;28;20119;-83
2022/06/26 09:43:38;;;;;;;1999.90;999.90;;;25.50;55.40;;;;;;5061292;28;20040;-83
2022/06/26 09:46:06;;;;;;;1999.90;999.90;;;25.50;49.20;;;;;;5098775;28;20027;-93
2022/06/26 09:48:33;;;;;;;1999.90;999.90;;;25.30;51.70;;;;;;5101908;28;20502;-83
2022/06/26 09:50:59;;;;;;;1999.90;999.90;;;25.30;55.70;;;;;;5059023;28;20058;-85
2022/06/26 09:53:27;;;;;;;1999.90;999.90;;;25.90;52.10;;;;;;5087042;28;20031;-82
2022/06/26 09:55:55;;;;;;;1999.90;999.90;;;26.00;55.80;;;;;;5111828;28;20024;-87
2022/06/26 09:58:22;;;;;;;1999.90;999.90;;;26.30;52.10;;;;;;5095142;28;20028;-84
2022/06/26 10:06:27;;;;;;;1999.90;999.90;;;26.90;49.00;;;;;;5100954;28;20049;-84
2022/06/26 10:08:54;;;;;;;1999.90;999.90;;;27.00;51.60;;;;;;5104666;28;20020;-90
2022/06/26 10:11:23;;;;;;;1999.90;999.90;;;27.00;50.00;;;;;;5079442;28;20181;-87
2022/06/26 10:13:50;;;;;;;1999.90;999.90;;;26.80;47.80;;;;;;5098389;28;20034;-84
2022/06/26 10:16:35;;;;;;;1999.90;999.90;;;26.70;48.30;;;;;;5083504;28;20028;-85
2022/06/26 10:19:15;;;;;;;1999.90;999.90;;;26.40;58.10;;;;;;5072276;28;20037;-89
2022/06/26 10:21:42;;;;;;;1999.90;999.90;;;26.70;49.40;;;;;;5100486;28;20227;-87
2022/06/26 10:24:07;;;;;;;1999.90;999.90;;;26.70;51.30;;;;;;5099981;28;20020;-87
2022/06/26 10:26:34;;;;;;;1999.90;999.90;;;26.90;52.90;;;;;;5061690;28;20722;-87
2022/06/26 10:29:05;;;;;;;1999.90;999.90;;;27.40;50.00;;;;;;5084542;28;20024;-91
2022/06/26 10:31:50;;;;;;;1999.90;999.90;;;27.50;49.50;;;;;;5101496;28;20179;-87
2022/06/26 10:34:19;;;;;;;1999.90;999.90;;;27.80;52.50;;;;;;5074045;28;20031;-87
2022/06/26 10:37:03;;;;;;;1999.90;999.90;;;28.00;46.00;;;;;;5091357;28;20020;-90
2022/06/26 10:39:41;;;;;;;1999.90;999.90;;;28.20;46.90;;;;;;5090920;28;20023;-87
2022/06/26 10:45:32;;;;;;;1999.90;999.90;;;27.70;45.60;;;;;;5093556;28;20039;-84
2022/06/26 10:48:00;;;;;;;1999.90;999.90;;;28.00;42.90;;;;;;5091037;28;20072;-84
2022/06/26 10:50:41;;;;;;;1999.90;999.90;;;28.10;47.10;;;;;;5087515;28;20032;-86
2022/06/26 10:53:25;;;;;;;1999.90;999.90;;;28.00;45.40;;;;;;5081403;28;20028;-86
2022/06/26 10:55:57;;;;;;;1999.90;999.90;;;27.90;44.30;;;;;;5074524;28;20028;-85
2022/06/26 10:58:31;;;;;;;1999.90;999.90;;;28.50;42.30;;;;;;5072947;28;20080;-84
2022/06/26 11:00:59;;;;;;;1999.90;999.90;;;28.80;42.40;;;;;;5089311;28;20036;-84
2022/06/26 11:03:25;;;;;;;1999.90;999.90;;;28.80;42.10;;;;;;5079996;28;20103;-84
2022/06/26 11:05:57;;;;;;;1999.90;999.90;;;29.00;43.10;;;;;;5071191;28;20107;-84
2022/06/26 11:08:46;;;;;;;1999.90;999.90;;;29.50;42.60;;;;;;5074891;28;20040;-84
2022/06/26 11:11:22;;;;;;;1999.90;999.90;;;29.60;40.00;;;;;;5084632;28;20034;-85
2022/06/26 11:13:51;;;;;;;1999.90;999.90;;;30.10;39.30;;;;;;5092855;28;20012;-85
2022/06/26 11:16:17;;;;;;;1999.90;999.90;;;29.90;39.20;;;;;;5071313;28;20028;-82
2022/06/26 11:18:43;;;;;;;1999.90;999.90;;;29.40;39.00;;;;;;5096614;28;20054;-83
2022/06/26 11:21:09;;;;;;;1999.90;999.90;;;30.10;38.50;;;;;;5075567;28;20024;-84
2022/06/26 11:23:36;;;;;;;1999.90;999.90;;;30.20;38.20;;;;;;5076798;28;20747;-84
2022/06/26 11:26:08;;;;;;;1999.90;999.90;;;30.10;35.00;;;;;;5097458;28;20106;-83
2022/06/26 11:28:39;;;;;;;1999.90;999.90;;;30.90;35.20;;;;;;5071734;28;20127;-83
2022/06/26 11:31:10;;;;;;;1999.90;999.90;;;31.30;35.80;;;;;;5068638;28;20047;-83
2022/06/26 11:33:39;;;;;;;1999.90;999.90;;;30.70;37.30;;;;;;5066525;28;20016;-83
2022/06/26 11:36:10;;;;;;;1999.90;999.90;;;31.50;35.90;;;;;;5091359;28;20028;-84
2022/06/26 11:38:36;;;;;;;1999.90;999.90;;;32.30;35.40;;;;;;5074300;28;20035;-83
2022/06/26 11:41:05;;;;;;;1999.90;999.90;;;31.70;35.40;;;;;;5082900;28;20617;-83
2022/06/26 11:43:31;;;;;;;1999.90;999.90;;;31.60;34.50;;;;;;5091259;28;20028;-83
2022/06/26 11:45:57;;;;;;;1999.90;999.90;;;31.30;35.10;;;;;;5071670;28;20035;-85
2022/06/26 11:48:23;;;;;;;1999.90;999.90;;;32.60;33.70;;;;;;5072946;28;20036;-84
2022/06/26 11:50:52;;;;;;;1999.90;999.90;;;31.40;35.70;;;;;;5076846;28;20419;-86
2022/06/26 11:53:20;;;;;;;1999.90;999.90;;;31.80;32.20;;;;;;5076012;28;20046;-86
2022/06/26 11:55:52;;;;;;;1999.90;999.90;;;31.80;33.80;;;;;;5076775;28;20031;-84
2022/06/26 11:58:20;;;;;;;1999.90;999.90;;;33.10;32.70;;;;;;5095051;28;20407;-85
2022/06/26 12:00:46;;;;;;;1999.90;999.90;;;32.80;31.60;;;;;;5072513;28;20066;-86
2022/06/26 12:03:18;;;;;;;1999.90;999.90;;;31.80;30.00;;;;;;5080291;28;20056;-84
2022/06/26 12:05:45;;;;;;;1999.90;999.90;;;31.50;35.10;;;;;;5049963;28;20029;-84
2022/06/26 12:08:19;;;;;;;1999.90;999.90;;;32.20;35.20;;;;;;5074521;28;20040;-83
2022/06/26 12:10:50;;;;;;;1999.90;999.90;;;33.30;33.40;;;;;;5094385;28;20074;-84
2022/06/26 12:13:32;;;;;;;1999.90;999.90;;;33.10;30.10;;;;;;5096785;28;20530;-84
2022/06/26 12:16:07;;;;;;;1999.90;999.90;;;32.80;28.40;;;;;;5070862;28;20084;-84